sensor_id;sensor_type;location;lat;lon;timestamp;temperature;humidity
74364;DHT22;62797;49.740;10.154;2022-09-02T00:01:43;15.30;33.00
74364;DHT22;62797;49.740;10.154;2022-09-02T00:04:29;15.20;32.90
74364;DHT22;62797;49.740;10.154;2022-09-02T00:06:55;15.20;33.30
74364;DHT22;62797;49.740;10.154;2022-09-02T00:09:23;15.20;33.30
74364;DHT22;62797;49.740;10.154;2022-09-02T00:11:50;15.20;33.40
74364;DHT22;62797;49.740;10.154;2022-09-02T00:14:20;15.20;33.40
74364;DHT22;62797;49.740;10.154;2022-09-02T00:16:47;15.10;33.80
74364;DHT22;62797;49.740;10.154;2022-09-02T00:19:17;15.20;33.30
74364;DHT22;62797;49.740;10.154;2022-09-02T00:21:43;15.10;33.70
74364;DHT22;62797;49.740;10.154;2022-09-02T00:24:09;15.10;34.40
74364;DHT22;62797;49.740;10.154;2022-09-02T00:26:35;15.10;34.20
74364;DHT22;62797;49.740;10.154;2022-09-02T00:29:00;15.10;33.80
74364;DHT22;62797;49.740;10.154;2022-09-02T00:31:26;15.00;33.20
74364;DHT22;62797;49.740;10.154;2022-09-02T00:33:53;15.00;33.40
74364;DHT22;62797;49.740;10.154;2022-09-02T00:36:19;15.00;33.80
74364;DHT22;62797;49.740;10.154;2022-09-02T00:38:45;15.00;33.80
74364;DHT22;62797;49.740;10.154;2022-09-02T00:41:11;15.00;33.70
74364;DHT22;62797;49.740;10.154;2022-09-02T00:46:16;15.00;34.10
74364;DHT22;62797;49.740;10.154;2022-09-02T00:48:46;15.00;33.50
74364;DHT22;62797;49.740;10.154;2022-09-02T00:51:13;15.00;32.90
74364;DHT22;62797;49.740;10.154;2022-09-02T00:53:42;14.90;32.90
74364;DHT22;62797;49.740;10.154;2022-09-02T00:56:11;14.80;33.30
74364;DHT22;62797;49.740;10.154;2022-09-02T00:58:38;14.80;33.70
74364;DHT22;62797;49.740;10.154;2022-09-02T01:01:04;14.70;34.10
74364;DHT22;62797;49.740;10.154;2022-09-02T01:03:31;14.70;33.20
74364;DHT22;62797;49.740;10.154;2022-09-02T01:05:58;14.60;33.80
74364;DHT22;62797;49.740;10.154;2022-09-02T01:08:27;14.60;33.70
74364;DHT22;62797;49.740;10.154;2022-09-02T01:10:54;14.70;34.10
74364;DHT22;62797;49.740;10.154;2022-09-02T01:13:26;14.70;33.60
74364;DHT22;62797;49.740;10.154;2022-09-02T01:15:55;14.60;33.30
74364;DHT22;62797;49.740;10.154;2022-09-02T01:18:26;14.60;33.90
74364;DHT22;62797;49.740;10.154;2022-09-02T01:20:54;14.40;33.80
74364;DHT22;62797;49.740;10.154;2022-09-02T01:23:20;14.40;34.20
74364;DHT22;62797;49.740;10.154;2022-09-02T01:25:46;14.30;34.20
74364;DHT22;62797;49.740;10.154;2022-09-02T01:28:15;14.30;34.80
74364;DHT22;62797;49.740;10.154;2022-09-02T01:30:52;14.30;34.10
74364;DHT22;62797;49.740;10.154;2022-09-02T01:33:20;14.30;34.20
74364;DHT22;62797;49.740;10.154;2022-09-02T01:35:46;14.20;34.40
74364;DHT22;62797;49.740;10.154;2022-09-02T01:38:12;14.20;34.30
74364;DHT22;62797;49.740;10.154;2022-09-02T01:40:38;14.20;34.40
74364;DHT22;62797;49.740;10.154;2022-09-02T01:43:14;14.20;34.40
74364;DHT22;62797;49.740;10.154;2022-09-02T01:45:42;14.10;35.00
74364;DHT22;62797;49.740;10.154;2022-09-02T01:48:08;14.00;35.10
74364;DHT22;62797;49.740;10.154;2022-09-02T01:50:40;14.00;34.80
74364;DHT22;62797;49.740;10.154;2022-09-02T01:53:06;13.90;35.00
74364;DHT22;62797;49.740;10.154;2022-09-02T01:55:33;13.90;35.10
74364;DHT22;62797;49.740;10.154;2022-09-02T01:57:59;13.90;35.10
74364;DHT22;62797;49.740;10.154;2022-09-02T02:00:25;13.90;36.00
74364;DHT22;62797;49.740;10.154;2022-09-02T02:02:52;13.90;35.30
74364;DHT22;62797;49.740;10.154;2022-09-02T02:05:17;13.90;35.80
74364;DHT22;62797;49.740;10.154;2022-09-02T02:07:43;13.80;35.30
74364;DHT22;62797;49.740;10.154;2022-09-02T02:10:10;13.70;35.90
74364;DHT22;62797;49.740;10.154;2022-09-02T02:12:38;13.70;35.40
74364;DHT22;62797;49.740;10.154;2022-09-02T02:15:12;13.60;36.30
74364;DHT22;62797;49.740;10.154;2022-09-02T02:17:38;13.60;36.80
74364;DHT22;62797;49.740;10.154;2022-09-02T02:20:05;13.60;36.00
74364;DHT22;62797;49.740;10.154;2022-09-02T02:22:31;13.50;36.00
74364;DHT22;62797;49.740;10.154;2022-09-02T02:24:57;13.50;35.90
74364;DHT22;62797;49.740;10.154;2022-09-02T02:27:23;13.40;36.00
74364;DHT22;62797;49.740;10.154;2022-09-02T02:29:48;13.40;36.00
74364;DHT22;62797;49.740;10.154;2022-09-02T02:32:14;13.40;35.90
74364;DHT22;62797;49.740;10.154;2022-09-02T02:34:43;13.40;35.90
74364;DHT22;62797;49.740;10.154;2022-09-02T02:37:08;13.40;35.70
74364;DHT22;62797;49.740;10.154;2022-09-02T02:39:36;13.30;36.10
74364;DHT22;62797;49.740;10.154;2022-09-02T02:42:02;13.20;36.70
74364;DHT22;62797;49.740;10.154;2022-09-02T02:44:27;13.10;36.50
74364;DHT22;62797;49.740;10.154;2022-09-02T02:46:53;13.10;37.20
74364;DHT22;62797;49.740;10.154;2022-09-02T02:49:19;13.10;37.50
74364;DHT22;62797;49.740;10.154;2022-09-02T02:51:46;13.00;37.50
74364;DHT22;62797;49.740;10.154;2022-09-02T02:54:11;12.90;37.30
74364;DHT22;62797;49.740;10.154;2022-09-02T02:56:38;12.90;37.50
74364;DHT22;62797;49.740;10.154;2022-09-02T02:59:04;12.90;37.70
74364;DHT22;62797;49.740;10.154;2022-09-02T03:01:31;12.90;38.40
74364;DHT22;62797;49.740;10.154;2022-09-02T03:03:56;12.80;38.40
74364;DHT22;62797;49.740;10.154;2022-09-02T03:06:23;12.90;38.30
74364;DHT22;62797;49.740;10.154;2022-09-02T03:08:49;12.90;37.80
74364;DHT22;62797;49.740;10.154;2022-09-02T03:11:15;12.80;37.70
74364;DHT22;62797;49.740;10.154;2022-09-02T03:13:41;12.90;38.00
74364;DHT22;62797;49.740;10.154;2022-09-02T03:16:07;12.80;37.60
74364;DHT22;62797;49.740;10.154;2022-09-02T03:18:33;12.80;39.40
74364;DHT22;62797;49.740;10.154;2022-09-02T03:20:59;12.70;38.40
74364;DHT22;62797;49.740;10.154;2022-09-02T03:23:25;12.80;38.70
74364;DHT22;62797;49.740;10.154;2022-09-02T03:25:51;12.80;38.10
74364;DHT22;62797;49.740;10.154;2022-09-02T03:28:17;12.70;38.70
74364;DHT22;62797;49.740;10.154;2022-09-02T03:30:44;12.70;38.30
74364;DHT22;62797;49.740;10.154;2022-09-02T03:33:10;12.70;38.70
74364;DHT22;62797;49.740;10.154;2022-09-02T03:35:42;12.70;38.40
74364;DHT22;62797;49.740;10.154;2022-09-02T03:38:09;12.70;38.10
74364;DHT22;62797;49.740;10.154;2022-09-02T03:40:35;12.60;38.20
74364;DHT22;62797;49.740;10.154;2022-09-02T03:43:01;12.60;38.00
74364;DHT22;62797;49.740;10.154;2022-09-02T03:45:27;12.50;38.50
74364;DHT22;62797;49.740;10.154;2022-09-02T03:47:53;12.50;38.40
74364;DHT22;62797;49.740;10.154;2022-09-02T03:50:22;12.40;38.70
74364;DHT22;62797;49.740;10.154;2022-09-02T03:52:48;12.40;39.80
74364;DHT22;62797;49.740;10.154;2022-09-02T03:55:14;12.30;39.10
74364;DHT22;62797;49.740;10.154;2022-09-02T03:57:40;12.30;39.50
74364;DHT22;62797;49.740;10.154;2022-09-02T04:00:07;12.30;40.30
74364;DHT22;62797;49.740;10.154;2022-09-02T04:02:33;12.30;39.10
74364;DHT22;62797;49.740;10.154;2022-09-02T04:04:59;12.30;39.00
74364;DHT22;62797;49.740;10.154;2022-09-02T04:07:25;12.40;38.60
74364;DHT22;62797;49.740;10.154;2022-09-02T04:09:51;12.30;38.90
74364;DHT22;62797;49.740;10.154;2022-09-02T04:12:17;12.30;39.00
74364;DHT22;62797;49.740;10.154;2022-09-02T04:14:42;12.20;39.40
74364;DHT22;62797;49.740;10.154;2022-09-02T04:17:08;12.10;40.20
74364;DHT22;62797;49.740;10.154;2022-09-02T04:19:33;12.20;39.80
74364;DHT22;62797;49.740;10.154;2022-09-02T04:21:59;12.20;39.60
74364;DHT22;62797;49.740;10.154;2022-09-02T04:24:24;12.20;39.10
74364;DHT22;62797;49.740;10.154;2022-09-02T04:26:50;12.10;39.50
74364;DHT22;62797;49.740;10.154;2022-09-02T04:29:16;12.10;40.40
74364;DHT22;62797;49.740;10.154;2022-09-02T04:31:42;12.00;40.80
74364;DHT22;62797;49.740;10.154;2022-09-02T04:34:08;12.00;41.10
74364;DHT22;62797;49.740;10.154;2022-09-02T04:36:33;12.10;40.00
74364;DHT22;62797;49.740;10.154;2022-09-02T04:38:59;12.10;39.70
74364;DHT22;62797;49.740;10.154;2022-09-02T04:41:27;12.10;40.10
74364;DHT22;62797;49.740;10.154;2022-09-02T04:43:55;12.10;39.60
74364;DHT22;62797;49.740;10.154;2022-09-02T04:46:22;12.10;40.20
74364;DHT22;62797;49.740;10.154;2022-09-02T04:48:48;12.00;39.90
74364;DHT22;62797;49.740;10.154;2022-09-02T04:51:16;12.00;39.60
74364;DHT22;62797;49.740;10.154;2022-09-02T04:53:43;11.90;39.90
74364;DHT22;62797;49.740;10.154;2022-09-02T04:56:10;11.90;40.20
74364;DHT22;62797;49.740;10.154;2022-09-02T04:58:37;12.00;40.10
74364;DHT22;62797;49.740;10.154;2022-09-02T05:01:07;12.00;40.10
74364;DHT22;62797;49.740;10.154;2022-09-02T05:03:34;11.90;40.60
74364;DHT22;62797;49.740;10.154;2022-09-02T05:06:01;12.00;40.80
74364;DHT22;62797;49.740;10.154;2022-09-02T05:08:27;11.90;41.30
74364;DHT22;62797;49.740;10.154;2022-09-02T05:10:53;12.00;41.60
74364;DHT22;62797;49.740;10.154;2022-09-02T05:13:19;12.00;40.40
74364;DHT22;62797;49.740;10.154;2022-09-02T05:15:44;12.00;41.00
74364;DHT22;62797;49.740;10.154;2022-09-02T05:18:10;12.00;40.00
74364;DHT22;62797;49.740;10.154;2022-09-02T05:20:40;12.00;40.00
74364;DHT22;62797;49.740;10.154;2022-09-02T05:23:08;12.00;40.80
74364;DHT22;62797;49.740;10.154;2022-09-02T05:25:35;12.00;40.90
74364;DHT22;62797;49.740;10.154;2022-09-02T05:28:02;12.00;41.80
74364;DHT22;62797;49.740;10.154;2022-09-02T05:30:27;12.10;41.10
74364;DHT22;62797;49.740;10.154;2022-09-02T05:32:53;12.10;40.60
74364;DHT22;62797;49.740;10.154;2022-09-02T05:35:19;12.20;40.40
74364;DHT22;62797;49.740;10.154;2022-09-02T05:37:45;12.20;40.50
74364;DHT22;62797;49.740;10.154;2022-09-02T05:40:10;12.20;41.40
74364;DHT22;62797;49.740;10.154;2022-09-02T05:42:40;12.30;41.50
74364;DHT22;62797;49.740;10.154;2022-09-02T05:45:06;12.40;40.60
74364;DHT22;62797;49.740;10.154;2022-09-02T05:47:34;12.40;41.70
74364;DHT22;62797;49.740;10.154;2022-09-02T05:49:59;12.60;41.10
74364;DHT22;62797;49.740;10.154;2022-09-02T05:52:26;12.70;41.10
74364;DHT22;62797;49.740;10.154;2022-09-02T05:54:52;12.70;40.70
74364;DHT22;62797;49.740;10.154;2022-09-02T05:57:19;12.80;40.60
74364;DHT22;62797;49.740;10.154;2022-09-02T05:59:45;12.80;40.80
74364;DHT22;62797;49.740;10.154;2022-09-02T06:02:13;13.00;40.20
74364;DHT22;62797;49.740;10.154;2022-09-02T06:04:47;13.10;40.10
74364;DHT22;62797;49.740;10.154;2022-09-02T06:07:15;13.20;40.10
74364;DHT22;62797;49.740;10.154;2022-09-02T06:09:41;13.30;40.00
74364;DHT22;62797;49.740;10.154;2022-09-02T06:12:10;13.40;40.20
74364;DHT22;62797;49.740;10.154;2022-09-02T06:14:36;13.50;39.90
74364;DHT22;62797;49.740;10.154;2022-09-02T06:17:03;13.60;39.20
74364;DHT22;62797;49.740;10.154;2022-09-02T06:19:28;13.60;40.00
74364;DHT22;62797;49.740;10.154;2022-09-02T06:21:55;13.80;39.20
74364;DHT22;62797;49.740;10.154;2022-09-02T06:24:21;13.90;39.00
74364;DHT22;62797;49.740;10.154;2022-09-02T06:26:48;14.00;38.80
74364;DHT22;62797;49.740;10.154;2022-09-02T06:29:14;14.10;38.60
74364;DHT22;62797;49.740;10.154;2022-09-02T06:31:41;14.10;38.80
74364;DHT22;62797;49.740;10.154;2022-09-02T06:34:07;14.20;38.60
74364;DHT22;62797;49.740;10.154;2022-09-02T06:36:36;14.30;37.80
74364;DHT22;62797;49.740;10.154;2022-09-02T06:39:02;14.50;37.20
74364;DHT22;62797;49.740;10.154;2022-09-02T06:41:30;14.50;36.20
74364;DHT22;62797;49.740;10.154;2022-09-02T06:43:59;14.60;36.90
74364;DHT22;62797;49.740;10.154;2022-09-02T06:46:29;14.80;36.70
74364;DHT22;62797;49.740;10.154;2022-09-02T06:48:54;14.90;36.00
74364;DHT22;62797;49.740;10.154;2022-09-02T06:51:29;15.00;36.10
74364;DHT22;62797;49.740;10.154;2022-09-02T06:53:56;15.10;35.70
74364;DHT22;62797;49.740;10.154;2022-09-02T06:56:22;15.30;35.50
74364;DHT22;62797;49.740;10.154;2022-09-02T06:58:47;15.40;34.70
74364;DHT22;62797;49.740;10.154;2022-09-02T07:01:22;15.50;34.00
74364;DHT22;62797;49.740;10.154;2022-09-02T07:03:48;15.60;33.90
74364;DHT22;62797;49.740;10.154;2022-09-02T07:06:37;15.60;33.30
74364;DHT22;62797;49.740;10.154;2022-09-02T07:09:04;15.70;34.40
74364;DHT22;62797;49.740;10.154;2022-09-02T07:11:30;15.80;33.30
74364;DHT22;62797;49.740;10.154;2022-09-02T07:13:56;15.90;32.20
74364;DHT22;62797;49.740;10.154;2022-09-02T07:16:27;15.90;32.10
74364;DHT22;62797;49.740;10.154;2022-09-02T07:18:53;16.00;32.30
74364;DHT22;62797;49.740;10.154;2022-09-02T07:21:19;16.10;31.90
74364;DHT22;62797;49.740;10.154;2022-09-02T07:23:44;16.20;31.10
74364;DHT22;62797;49.740;10.154;2022-09-02T07:26:15;16.20;30.00
74364;DHT22;62797;49.740;10.154;2022-09-02T07:28:41;16.30;29.70
74364;DHT22;62797;49.740;10.154;2022-09-02T07:31:10;16.30;29.40
74364;DHT22;62797;49.740;10.154;2022-09-02T07:33:37;16.40;29.20
74364;DHT22;62797;49.740;10.154;2022-09-02T07:36:04;16.40;29.20
74364;DHT22;62797;49.740;10.154;2022-09-02T07:38:31;16.60;28.90
74364;DHT22;62797;49.740;10.154;2022-09-02T07:40:56;16.60;28.40
74364;DHT22;62797;49.740;10.154;2022-09-02T07:43:25;16.60;28.70
74364;DHT22;62797;49.740;10.154;2022-09-02T07:45:51;16.70;28.70
74364;DHT22;62797;49.740;10.154;2022-09-02T07:48:17;16.80;28.10
74364;DHT22;62797;49.740;10.154;2022-09-02T07:50:43;16.90;28.60
74364;DHT22;62797;49.740;10.154;2022-09-02T07:53:09;17.00;28.20
74364;DHT22;62797;49.740;10.154;2022-09-02T07:55:36;17.10;28.10
74364;DHT22;62797;49.740;10.154;2022-09-02T07:58:03;17.20;28.20
74364;DHT22;62797;49.740;10.154;2022-09-02T08:00:29;17.20;28.00
74364;DHT22;62797;49.740;10.154;2022-09-02T08:02:55;17.40;27.50
74364;DHT22;62797;49.740;10.154;2022-09-02T08:05:21;17.50;27.70
74364;DHT22;62797;49.740;10.154;2022-09-02T08:07:47;17.50;27.30
74364;DHT22;62797;49.740;10.154;2022-09-02T08:10:13;17.60;27.40
74364;DHT22;62797;49.740;10.154;2022-09-02T08:12:40;17.60;27.10
74364;DHT22;62797;49.740;10.154;2022-09-02T08:15:07;17.80;26.90
74364;DHT22;62797;49.740;10.154;2022-09-02T08:17:33;17.90;26.60
74364;DHT22;62797;49.740;10.154;2022-09-02T08:19:59;18.00;26.10
74364;DHT22;62797;49.740;10.154;2022-09-02T08:22:25;18.10;25.70
74364;DHT22;62797;49.740;10.154;2022-09-02T08:24:51;18.10;26.00
74364;DHT22;62797;49.740;10.154;2022-09-02T08:27:17;18.20;26.00
74364;DHT22;62797;49.740;10.154;2022-09-02T08:29:42;18.30;26.20
74364;DHT22;62797;49.740;10.154;2022-09-02T08:32:08;18.40;26.20
74364;DHT22;62797;49.740;10.154;2022-09-02T08:34:34;18.40;25.70
74364;DHT22;62797;49.740;10.154;2022-09-02T08:36:59;18.50;24.80
74364;DHT22;62797;49.740;10.154;2022-09-02T08:39:25;18.60;24.60
74364;DHT22;62797;49.740;10.154;2022-09-02T08:44:41;18.80;24.40
74364;DHT22;62797;49.740;10.154;2022-09-02T08:47:13;18.90;24.00
74364;DHT22;62797;49.740;10.154;2022-09-02T08:49:47;19.00;24.20
74364;DHT22;62797;49.740;10.154;2022-09-02T08:53:09;19.10;23.60
74364;DHT22;62797;49.740;10.154;2022-09-02T08:55:31;19.20;22.20
74364;DHT22;62797;49.740;10.154;2022-09-02T08:57:59;19.40;22.60
74364;DHT22;62797;49.740;10.154;2022-09-02T09:00:28;19.50;22.60
74364;DHT22;62797;49.740;10.154;2022-09-02T09:05:48;20.00;20.30
74364;DHT22;62797;49.740;10.154;2022-09-02T09:08:37;20.20;20.00
74364;DHT22;62797;49.740;10.154;2022-09-02T09:11:20;20.30;20.40
74364;DHT22;62797;49.740;10.154;2022-09-02T09:16:47;20.40;19.60
74364;DHT22;62797;49.740;10.154;2022-09-02T09:21:54;20.60;19.00
74364;DHT22;62797;49.740;10.154;2022-09-02T09:24:32;20.70;18.90
74364;DHT22;62797;49.740;10.154;2022-09-02T09:27:03;20.80;18.50
74364;DHT22;62797;49.740;10.154;2022-09-02T09:29:32;20.90;18.40
74364;DHT22;62797;49.740;10.154;2022-09-02T09:31:59;20.90;18.00
74364;DHT22;62797;49.740;10.154;2022-09-02T09:34:55;21.00;18.20
74364;DHT22;62797;49.740;10.154;2022-09-02T09:37:37;21.10;18.00
74364;DHT22;62797;49.740;10.154;2022-09-02T09:45:40;21.30;18.00
74364;DHT22;62797;49.740;10.154;2022-09-02T09:50:45;21.40;17.00
74364;DHT22;62797;49.740;10.154;2022-09-02T09:53:14;21.40;17.40
74364;DHT22;62797;49.740;10.154;2022-09-02T09:55:57;21.50;17.50
74364;DHT22;62797;49.740;10.154;2022-09-02T09:58:29;21.50;17.40
74364;DHT22;62797;49.740;10.154;2022-09-02T10:00:56;21.50;16.60
74364;DHT22;62797;49.740;10.154;2022-09-02T10:03:26;21.60;16.00
74364;DHT22;62797;49.740;10.154;2022-09-02T10:05:58;21.70;15.90
74364;DHT22;62797;49.740;10.154;2022-09-02T10:08:26;21.80;14.70
74364;DHT22;62797;49.740;10.154;2022-09-02T10:10:59;21.90;14.40
74364;DHT22;62797;49.740;10.154;2022-09-02T10:13:28;22.10;14.20
74364;DHT22;62797;49.740;10.154;2022-09-02T10:18:52;22.20;14.10
74364;DHT22;62797;49.740;10.154;2022-09-02T10:26:48;22.70;12.70
74364;DHT22;62797;49.740;10.154;2022-09-02T10:34:40;23.10;11.50
74364;DHT22;62797;49.740;10.154;2022-09-02T10:37:18;23.20;11.00
74364;DHT22;62797;49.740;10.154;2022-09-02T10:40:11;23.30;10.70
74364;DHT22;62797;49.740;10.154;2022-09-02T10:45:47;23.40;9.80
74364;DHT22;62797;49.740;10.154;2022-09-02T10:57:19;23.70;9.90
74364;DHT22;62797;49.740;10.154;2022-09-02T11:02:58;23.80;9.80
74364;DHT22;62797;49.740;10.154;2022-09-02T11:08:09;24.20;9.00
74364;DHT22;62797;49.740;10.154;2022-09-02T11:11:00;24.40;9.20
74364;DHT22;62797;49.740;10.154;2022-09-02T11:13:50;24.50;8.60
74364;DHT22;62797;49.740;10.154;2022-09-02T11:16:30;24.40;8.60
74364;DHT22;62797;49.740;10.154;2022-09-02T11:22:02;24.70;8.90
74364;DHT22;62797;49.740;10.154;2022-09-02T11:24:35;25.10;8.20
74364;DHT22;62797;49.740;10.154;2022-09-02T11:30:41;25.50;7.80
74364;DHT22;62797;49.740;10.154;2022-09-02T11:33:08;25.40;7.70
74364;DHT22;62797;49.740;10.154;2022-09-02T11:35:37;25.50;7.40
74364;DHT22;62797;49.740;10.154;2022-09-02T11:41:05;25.70;7.40
74364;DHT22;62797;49.740;10.154;2022-09-02T11:46:44;25.60;6.80
74364;DHT22;62797;49.740;10.154;2022-09-02T11:49:47;25.80;6.80
74364;DHT22;62797;49.740;10.154;2022-09-02T11:52:24;26.10;6.80
74364;DHT22;62797;49.740;10.154;2022-09-02T11:55:13;26.40;6.30
74364;DHT22;62797;49.740;10.154;2022-09-02T11:57:41;26.60;4.80
74364;DHT22;62797;49.740;10.154;2022-09-02T12:00:24;26.70;5.80
74364;DHT22;62797;49.740;10.154;2022-09-02T12:02:54;26.80;4.50
74364;DHT22;62797;49.740;10.154;2022-09-02T12:11:02;26.60;4.80
74364;DHT22;62797;49.740;10.154;2022-09-02T12:13:42;26.60;4.80
74364;DHT22;62797;49.740;10.154;2022-09-02T12:18:42;26.70;4.60
74364;DHT22;62797;49.740;10.154;2022-09-02T12:21:16;26.90;5.40
74364;DHT22;62797;49.740;10.154;2022-09-02T12:31:50;27.10;5.20
74364;DHT22;62797;49.740;10.154;2022-09-02T12:36:52;27.10;4.90
74364;DHT22;62797;49.740;10.154;2022-09-02T12:41:55;27.30;3.80
74364;DHT22;62797;49.740;10.154;2022-09-02T12:47:05;27.00;3.30
74364;DHT22;62797;49.740;10.154;2022-09-02T12:49:42;26.70;4.50
74364;DHT22;62797;49.740;10.154;2022-09-02T12:55:12;27.00;4.40
74364;DHT22;62797;49.740;10.154;2022-09-02T12:57:42;27.10;3.80
74364;DHT22;62797;49.740;10.154;2022-09-02T13:00:30;27.20;4.40
74364;DHT22;62797;49.740;10.154;2022-09-02T13:03:44;27.20;3.80
74364;DHT22;62797;49.740;10.154;2022-09-02T13:06:03;27.10;4.70
74364;DHT22;62797;49.740;10.154;2022-09-02T13:08:53;27.20;4.40
74364;DHT22;62797;49.740;10.154;2022-09-02T13:18:05;27.60;3.60
74364;DHT22;62797;49.740;10.154;2022-09-02T13:21:06;27.80;3.80
74364;DHT22;62797;49.740;10.154;2022-09-02T13:31:58;27.90;3.00
74364;DHT22;62797;49.740;10.154;2022-09-02T13:34:24;27.70;3.40
74364;DHT22;62797;49.740;10.154;2022-09-02T13:36:50;27.80;4.30
74364;DHT22;62797;49.740;10.154;2022-09-02T13:39:18;27.60;3.40
74364;DHT22;62797;49.740;10.154;2022-09-02T13:41:44;27.60;3.60
74364;DHT22;62797;49.740;10.154;2022-09-02T13:44:21;27.80;3.60
74364;DHT22;62797;49.740;10.154;2022-09-02T13:46:52;28.10;4.10
74364;DHT22;62797;49.740;10.154;2022-09-02T13:49:24;28.50;2.90
74364;DHT22;62797;49.740;10.154;2022-09-02T13:51:52;28.70;2.90
74364;DHT22;62797;49.740;10.154;2022-09-02T13:54:31;29.00;2.70
74364;DHT22;62797;49.740;10.154;2022-09-02T13:57:00;28.80;2.80
74364;DHT22;62797;49.740;10.154;2022-09-02T13:59:33;29.10;3.10
74364;DHT22;62797;49.740;10.154;2022-09-02T14:02:19;29.50;3.40
74364;DHT22;62797;49.740;10.154;2022-09-02T14:04:44;29.80;2.90
74364;DHT22;62797;49.740;10.154;2022-09-02T14:07:11;30.50;3.00
74364;DHT22;62797;49.740;10.154;2022-09-02T14:09:38;30.60;2.40
74364;DHT22;62797;49.740;10.154;2022-09-02T14:12:05;30.70;2.10
74364;DHT22;62797;49.740;10.154;2022-09-02T14:14:31;31.00;3.10
74364;DHT22;62797;49.740;10.154;2022-09-02T14:17:25;31.30;2.10
74364;DHT22;62797;49.740;10.154;2022-09-02T14:20:19;31.40;1.00
74364;DHT22;62797;49.740;10.154;2022-09-02T14:22:53;31.50;1.00
74364;DHT22;62797;49.740;10.154;2022-09-02T14:25:19;31.10;1.00
74364;DHT22;62797;49.740;10.154;2022-09-02T14:27:52;31.20;1.70
74364;DHT22;62797;49.740;10.154;2022-09-02T14:41:24;32.00;1.00
74364;DHT22;62797;49.740;10.154;2022-09-02T14:44:44;32.30;1.00
74364;DHT22;62797;49.740;10.154;2022-09-02T14:46:49;32.50;1.00
74364;DHT22;62797;49.740;10.154;2022-09-02T14:52:00;32.30;1.70
74364;DHT22;62797;49.740;10.154;2022-09-02T14:54:36;32.60;1.00
74364;DHT22;62797;49.740;10.154;2022-09-02T14:57:03;32.40;1.00
74364;DHT22;62797;49.740;10.154;2022-09-02T14:59:29;32.40;1.00
74364;DHT22;62797;49.740;10.154;2022-09-02T15:01:55;32.30;1.00
74364;DHT22;62797;49.740;10.154;2022-09-02T15:04:21;32.00;1.30
74364;DHT22;62797;49.740;10.154;2022-09-02T15:06:47;32.10;1.50
74364;DHT22;62797;49.740;10.154;2022-09-02T15:09:13;32.20;1.00
74364;DHT22;62797;49.740;10.154;2022-09-02T15:11:42;32.40;1.00
74364;DHT22;62797;49.740;10.154;2022-09-02T15:14:09;32.00;1.00
74364;DHT22;62797;49.740;10.154;2022-09-02T15:16:37;31.70;1.00
74364;DHT22;62797;49.740;10.154;2022-09-02T15:19:03;31.60;1.00
74364;DHT22;62797;49.740;10.154;2022-09-02T15:21:28;31.80;1.00
74364;DHT22;62797;49.740;10.154;2022-09-02T15:23:54;31.90;1.00
74364;DHT22;62797;49.740;10.154;2022-09-02T15:26:19;32.30;1.40
74364;DHT22;62797;49.740;10.154;2022-09-02T15:28:45;32.50;1.90
74364;DHT22;62797;49.740;10.154;2022-09-02T15:31:11;32.60;1.00
74364;DHT22;62797;49.740;10.154;2022-09-02T15:33:37;32.60;1.00
74364;DHT22;62797;49.740;10.154;2022-09-02T15:36:20;32.60;1.00
74364;DHT22;62797;49.740;10.154;2022-09-02T15:38:47;32.60;1.00
74364;DHT22;62797;49.740;10.154;2022-09-02T15:41:21;32.80;1.00
74364;DHT22;62797;49.740;10.154;2022-09-02T15:43:47;32.80;1.00
74364;DHT22;62797;49.740;10.154;2022-09-02T15:48:41;32.60;1.00
74364;DHT22;62797;49.740;10.154;2022-09-02T15:51:09;32.60;1.00
74364;DHT22;62797;49.740;10.154;2022-09-02T15:53:35;32.20;1.00
74364;DHT22;62797;49.740;10.154;2022-09-02T15:56:01;32.10;1.00
74364;DHT22;62797;49.740;10.154;2022-09-02T15:58:26;32.20;1.00
74364;DHT22;62797;49.740;10.154;2022-09-02T16:00:52;32.20;1.00
74364;DHT22;62797;49.740;10.154;2022-09-02T16:03:17;32.00;1.00
74364;DHT22;62797;49.740;10.154;2022-09-02T16:05:43;31.80;1.00
74364;DHT22;62797;49.740;10.154;2022-09-02T16:08:08;31.70;1.00
74364;DHT22;62797;49.740;10.154;2022-09-02T16:10:35;31.50;1.00
74364;DHT22;62797;49.740;10.154;2022-09-02T16:13:00;31.50;1.00
74364;DHT22;62797;49.740;10.154;2022-09-02T16:15:26;31.60;1.00
74364;DHT22;62797;49.740;10.154;2022-09-02T16:17:53;31.90;1.00
74364;DHT22;62797;49.740;10.154;2022-09-02T16:20:18;32.00;1.00
74364;DHT22;62797;49.740;10.154;2022-09-02T16:22:44;31.80;1.00
74364;DHT22;62797;49.740;10.154;2022-09-02T16:25:09;31.70;1.00
74364;DHT22;62797;49.740;10.154;2022-09-02T16:27:35;31.40;1.10
74364;DHT22;62797;49.740;10.154;2022-09-02T16:30:21;31.50;1.00
74364;DHT22;62797;49.740;10.154;2022-09-02T16:32:47;31.20;1.00
74364;DHT22;62797;49.740;10.154;2022-09-02T16:35:15;30.90;1.00
74364;DHT22;62797;49.740;10.154;2022-09-02T16:37:40;30.80;1.20
74364;DHT22;62797;49.740;10.154;2022-09-02T16:40:06;30.80;1.00
74364;DHT22;62797;49.740;10.154;2022-09-02T16:42:32;30.50;2.00
74364;DHT22;62797;49.740;10.154;2022-09-02T16:44:57;30.50;1.70
74364;DHT22;62797;49.740;10.154;2022-09-02T16:47:23;30.30;2.10
74364;DHT22;62797;49.740;10.154;2022-09-02T16:49:49;30.30;2.10
74364;DHT22;62797;49.740;10.154;2022-09-02T16:52:14;30.20;1.40
74364;DHT22;62797;49.740;10.154;2022-09-02T16:54:40;29.80;1.20
74364;DHT22;62797;49.740;10.154;2022-09-02T16:57:05;29.50;1.70
74364;DHT22;62797;49.740;10.154;2022-09-02T16:59:31;29.60;1.90
74364;DHT22;62797;49.740;10.154;2022-09-02T17:01:57;29.30;2.00
74364;DHT22;62797;49.740;10.154;2022-09-02T17:04:23;29.20;2.40
74364;DHT22;62797;49.740;10.154;2022-09-02T17:06:49;28.90;2.60
74364;DHT22;62797;49.740;10.154;2022-09-02T17:09:14;28.90;2.60
74364;DHT22;62797;49.740;10.154;2022-09-02T17:11:41;28.50;3.50
74364;DHT22;62797;49.740;10.154;2022-09-02T17:14:10;28.10;3.10
74364;DHT22;62797;49.740;10.154;2022-09-02T17:16:45;27.70;3.10
74364;DHT22;62797;49.740;10.154;2022-09-02T17:19:11;27.30;3.60
74364;DHT22;62797;49.740;10.154;2022-09-02T17:21:46;26.80;3.80
74364;DHT22;62797;49.740;10.154;2022-09-02T17:24:14;26.40;4.40
74364;DHT22;62797;49.740;10.154;2022-09-02T17:26:42;26.10;5.00
74364;DHT22;62797;49.740;10.154;2022-09-02T17:29:12;25.80;5.00
74364;DHT22;62797;49.740;10.154;2022-09-02T17:31:38;25.50;5.40
74364;DHT22;62797;49.740;10.154;2022-09-02T17:34:05;25.20;5.80
74364;DHT22;62797;49.740;10.154;2022-09-02T17:36:33;24.80;6.40